<?xml version="1.0" encoding="UTF-8" standalone="no" ?>
<gpx xmlns="http://www.topografix.com/GPX/1/1" xmlns:xsi="http://www.w3.org/2001/XMLSchema-instance" xsi:schemaLocation="http://www.topografix.com/GPX/1/1 http://www.topografix.com/GPX/1/1/gpx.xsd" version="1.1" creator="VisuGPX - https://www.visugpx.com">
  <metadata>
    <name>Ravel Rochefort Houillet 2013 (Aoû)</name>
    <desc><![CDATA[Ravel Rochefort Houillet bien sympa et pas trop dur ]]></desc>
  </metadata>
  <trk>
    <name><![CDATA[Rochefort houyllet]]></name>
    <trkseg>
      <trkpt lat="50.14902" lon="5.15024">
        <ele>213</ele>
        <time>2013-08-04T10:54:13Z</time>
      </trkpt>
      <trkpt lat="50.14888" lon="5.14955">
        <ele>212</ele>
        <time>2013-08-04T10:54:23Z</time>
      </trkpt>
      <trkpt lat="50.14873" lon="5.14869">
        <ele>212</ele>
        <time>2013-08-04T10:54:33Z</time>
      </trkpt>
      <trkpt lat="50.14861" lon="5.14766">
        <ele>212</ele>
        <time>2013-08-04T10:54:43Z</time>
      </trkpt>
      <trkpt lat="50.14852" lon="5.14676">
        <ele>211</ele>
        <time>2013-08-04T10:54:53Z</time>
      </trkpt>
      <trkpt lat="50.14851" lon="5.14625">
        <ele>210</ele>
        <time>2013-08-04T10:55:03Z</time>
      </trkpt>
      <trkpt lat="50.14849" lon="5.14558">
        <ele>210</ele>
        <time>2013-08-04T10:55:13Z</time>
      </trkpt>
      <trkpt lat="50.14851" lon="5.14489">
        <ele>210</ele>
        <time>2013-08-04T10:55:23Z</time>
      </trkpt>
      <trkpt lat="50.14854" lon="5.14427">
        <ele>209</ele>
        <time>2013-08-04T10:55:33Z</time>
      </trkpt>
      <trkpt lat="50.14859" lon="5.14367">
        <ele>209</ele>
        <time>2013-08-04T10:55:43Z</time>
      </trkpt>
      <trkpt lat="50.14866" lon="5.14314">
        <ele>209</ele>
        <time>2013-08-04T10:55:53Z</time>
      </trkpt>
      <trkpt lat="50.14874" lon="5.1425">
        <ele>209</ele>
        <time>2013-08-04T10:56:03Z</time>
      </trkpt>
      <trkpt lat="50.14884" lon="5.14191">
        <ele>209</ele>
        <time>2013-08-04T10:56:13Z</time>
      </trkpt>
      <trkpt lat="50.14894" lon="5.14135">
        <ele>209</ele>
        <time>2013-08-04T10:56:23Z</time>
      </trkpt>
      <trkpt lat="50.14905" lon="5.14079">
        <ele>209</ele>
        <time>2013-08-04T10:56:33Z</time>
      </trkpt>
      <trkpt lat="50.1492" lon="5.14029">
        <ele>209</ele>
        <time>2013-08-04T10:56:43Z</time>
      </trkpt>
      <trkpt lat="50.1494" lon="5.13968">
        <ele>209</ele>
        <time>2013-08-04T10:56:53Z</time>
      </trkpt>
      <trkpt lat="50.1496" lon="5.13901">
        <ele>209</ele>
        <time>2013-08-04T10:57:03Z</time>
      </trkpt>
      <trkpt lat="50.1498" lon="5.13845">
        <ele>208</ele>
        <time>2013-08-04T10:57:13Z</time>
      </trkpt>
      <trkpt lat="50.15001" lon="5.13794">
        <ele>207</ele>
        <time>2013-08-04T10:57:23Z</time>
      </trkpt>
      <trkpt lat="50.1502" lon="5.13744">
        <ele>207</ele>
        <time>2013-08-04T10:57:33Z</time>
      </trkpt>
      <trkpt lat="50.15041" lon="5.13689">
        <ele>207</ele>
        <time>2013-08-04T10:57:43Z</time>
      </trkpt>
      <trkpt lat="50.15063" lon="5.13643">
        <ele>207</ele>
        <time>2013-08-04T10:57:54Z</time>
      </trkpt>
      <trkpt lat="50.15082" lon="5.13595">
        <ele>207</ele>
        <time>2013-08-04T10:58:04Z</time>
      </trkpt>
      <trkpt lat="50.15103" lon="5.1354">
        <ele>207</ele>
        <time>2013-08-04T10:58:14Z</time>
      </trkpt>
      <trkpt lat="50.15123" lon="5.13494">
        <ele>207</ele>
        <time>2013-08-04T10:58:24Z</time>
      </trkpt>
      <trkpt lat="50.15142" lon="5.13446">
        <ele>206</ele>
        <time>2013-08-04T10:58:34Z</time>
      </trkpt>
      <trkpt lat="50.15167" lon="5.13386">
        <ele>206</ele>
        <time>2013-08-04T10:58:44Z</time>
      </trkpt>
      <trkpt lat="50.15183" lon="5.13348">
        <ele>206</ele>
        <time>2013-08-04T10:58:54Z</time>
      </trkpt>
      <trkpt lat="50.15203" lon="5.13306">
        <ele>206</ele>
        <time>2013-08-04T10:59:04Z</time>
      </trkpt>
      <trkpt lat="50.15221" lon="5.13262">
        <ele>206</ele>
        <time>2013-08-04T10:59:14Z</time>
      </trkpt>
      <trkpt lat="50.15239" lon="5.13222">
        <ele>206</ele>
        <time>2013-08-04T10:59:24Z</time>
      </trkpt>
      <trkpt lat="50.15259" lon="5.1317">
        <ele>206</ele>
        <time>2013-08-04T10:59:34Z</time>
      </trkpt>
      <trkpt lat="50.15265" lon="5.13155">
        <ele>207</ele>
        <time>2013-08-04T10:59:44Z</time>
      </trkpt>
      <trkpt lat="50.15265" lon="5.13152">
        <ele>207</ele>
        <time>2013-08-04T10:59:54Z</time>
      </trkpt>
      <trkpt lat="50.15266" lon="5.13152">
        <ele>205</ele>
        <time>2013-08-04T11:00:04Z</time>
      </trkpt>
      <trkpt lat="50.15265" lon="5.1315">
        <ele>206</ele>
        <time>2013-08-04T11:00:14Z</time>
      </trkpt>
      <trkpt lat="50.15265" lon="5.1315">
        <ele>206</ele>
        <time>2013-08-04T11:00:24Z</time>
      </trkpt>
      <trkpt lat="50.15264" lon="5.13147">
        <ele>206</ele>
        <time>2013-08-04T11:00:35Z</time>
      </trkpt>
      <trkpt lat="50.15264" lon="5.13146">
        <ele>206</ele>
        <time>2013-08-04T11:00:45Z</time>
      </trkpt>
      <trkpt lat="50.15263" lon="5.13146">
        <ele>206</ele>
        <time>2013-08-04T11:00:55Z</time>
      </trkpt>
      <trkpt lat="50.15262" lon="5.13143">
        <ele>206</ele>
        <time>2013-08-04T11:01:05Z</time>
      </trkpt>
      <trkpt lat="50.15262" lon="5.13142">
        <ele>206</ele>
        <time>2013-08-04T11:01:15Z</time>
      </trkpt>
      <trkpt lat="50.15263" lon="5.13147">
        <ele>206</ele>
        <time>2013-08-04T11:01:25Z</time>
      </trkpt>
      <trkpt lat="50.15264" lon="5.13151">
        <ele>206</ele>
        <time>2013-08-04T11:01:35Z</time>
      </trkpt>
      <trkpt lat="50.15264" lon="5.13154">
        <ele>206</ele>
        <time>2013-08-04T11:01:45Z</time>
      </trkpt>
      <trkpt lat="50.15265" lon="5.13156">
        <ele>207</ele>
        <time>2013-08-04T11:01:55Z</time>
      </trkpt>
      <trkpt lat="50.15265" lon="5.13157">
        <ele>207</ele>
        <time>2013-08-04T11:02:05Z</time>
      </trkpt>
      <trkpt lat="50.15265" lon="5.13158">
        <ele>207</ele>
        <time>2013-08-04T11:02:15Z</time>
      </trkpt>
      <trkpt lat="50.15265" lon="5.13156">
        <ele>207</ele>
        <time>2013-08-04T11:02:25Z</time>
      </trkpt>
      <trkpt lat="50.15265" lon="5.13154">
        <ele>207</ele>
        <time>2013-08-04T11:02:35Z</time>
      </trkpt>
      <trkpt lat="50.15265" lon="5.13153">
        <ele>207</ele>
        <time>2013-08-04T11:02:45Z</time>
      </trkpt>
      <trkpt lat="50.15265" lon="5.13151">
        <ele>207</ele>
        <time>2013-08-04T11:02:55Z</time>
      </trkpt>
      <trkpt lat="50.15265" lon="5.13149">
        <ele>207</ele>
        <time>2013-08-04T11:03:05Z</time>
      </trkpt>
      <trkpt lat="50.15265" lon="5.13149">
        <ele>207</ele>
        <time>2013-08-04T11:03:16Z</time>
      </trkpt>
      <trkpt lat="50.15265" lon="5.13148">
        <ele>207</ele>
        <time>2013-08-04T11:03:26Z</time>
      </trkpt>
      <trkpt lat="50.15264" lon="5.13148">
        <ele>206</ele>
        <time>2013-08-04T11:03:36Z</time>
      </trkpt>
      <trkpt lat="50.15263" lon="5.13148">
        <ele>206</ele>
        <time>2013-08-04T11:03:46Z</time>
      </trkpt>
      <trkpt lat="50.15263" lon="5.13148">
        <ele>206</ele>
        <time>2013-08-04T11:03:56Z</time>
      </trkpt>
      <trkpt lat="50.15263" lon="5.13147">
        <ele>207</ele>
        <time>2013-08-04T11:04:06Z</time>
      </trkpt>
      <trkpt lat="50.15269" lon="5.13133">
        <ele>207</ele>
        <time>2013-08-04T11:04:16Z</time>
      </trkpt>
      <trkpt lat="50.15283" lon="5.13102">
        <ele>207</ele>
        <time>2013-08-04T11:04:26Z</time>
      </trkpt>
      <trkpt lat="50.15297" lon="5.1307">
        <ele>208</ele>
        <time>2013-08-04T11:04:36Z</time>
      </trkpt>
      <trkpt lat="50.15314" lon="5.1303">
        <ele>208</ele>
        <time>2013-08-04T11:04:46Z</time>
      </trkpt>
      <trkpt lat="50.15334" lon="5.12988">
        <ele>208</ele>
        <time>2013-08-04T11:04:56Z</time>
      </trkpt>
      <trkpt lat="50.15354" lon="5.12942">
        <ele>207</ele>
        <time>2013-08-04T11:05:06Z</time>
      </trkpt>
      <trkpt lat="50.15381" lon="5.12881">
        <ele>207</ele>
        <time>2013-08-04T11:05:17Z</time>
      </trkpt>
      <trkpt lat="50.15408" lon="5.12821">
        <ele>208</ele>
        <time>2013-08-04T11:05:27Z</time>
      </trkpt>
      <trkpt lat="50.1543" lon="5.12768">
        <ele>207</ele>
        <time>2013-08-04T11:05:37Z</time>
      </trkpt>
      <trkpt lat="50.15451" lon="5.12719">
        <ele>207</ele>
        <time>2013-08-04T11:05:47Z</time>
      </trkpt>
      <trkpt lat="50.15473" lon="5.12668">
        <ele>207</ele>
        <time>2013-08-04T11:05:57Z</time>
      </trkpt>
      <trkpt lat="50.15496" lon="5.12611">
        <ele>206</ele>
        <time>2013-08-04T11:06:07Z</time>
      </trkpt>
      <trkpt lat="50.15522" lon="5.12542">
        <ele>206</ele>
        <time>2013-08-04T11:06:17Z</time>
      </trkpt>
      <trkpt lat="50.15541" lon="5.12486">
        <ele>205</ele>
        <time>2013-08-04T11:06:27Z</time>
      </trkpt>
      <trkpt lat="50.15562" lon="5.1243">
        <ele>205</ele>
        <time>2013-08-04T11:06:37Z</time>
      </trkpt>
      <trkpt lat="50.15587" lon="5.12377">
        <ele>205</ele>
        <time>2013-08-04T11:06:47Z</time>
      </trkpt>
      <trkpt lat="50.15605" lon="5.12321">
        <ele>205</ele>
        <time>2013-08-04T11:06:57Z</time>
      </trkpt>
      <trkpt lat="50.15626" lon="5.12252">
        <ele>204</ele>
        <time>2013-08-04T11:07:07Z</time>
      </trkpt>
      <trkpt lat="50.15646" lon="5.12192">
        <ele>204</ele>
        <time>2013-08-04T11:07:18Z</time>
      </trkpt>
      <trkpt lat="50.15665" lon="5.12137">
        <ele>203</ele>
        <time>2013-08-04T11:07:28Z</time>
      </trkpt>
      <trkpt lat="50.15684" lon="5.12087">
        <ele>203</ele>
        <time>2013-08-04T11:07:38Z</time>
      </trkpt>
      <trkpt lat="50.15704" lon="5.12024">
        <ele>203</ele>
        <time>2013-08-04T11:07:48Z</time>
      </trkpt>
      <trkpt lat="50.15724" lon="5.11965">
        <ele>202</ele>
        <time>2013-08-04T11:07:58Z</time>
      </trkpt>
      <trkpt lat="50.15746" lon="5.11915">
        <ele>201</ele>
        <time>2013-08-04T11:08:08Z</time>
      </trkpt>
      <trkpt lat="50.15769" lon="5.11868">
        <ele>201</ele>
        <time>2013-08-04T11:08:18Z</time>
      </trkpt>
      <trkpt lat="50.15794" lon="5.11813">
        <ele>201</ele>
        <time>2013-08-04T11:08:28Z</time>
      </trkpt>
      <trkpt lat="50.15826" lon="5.11768">
        <ele>201</ele>
        <time>2013-08-04T11:08:38Z</time>
      </trkpt>
      <trkpt lat="50.15858" lon="5.11724">
        <ele>201</ele>
        <time>2013-08-04T11:08:48Z</time>
      </trkpt>
      <trkpt lat="50.15895" lon="5.11681">
        <ele>201</ele>
        <time>2013-08-04T11:08:58Z</time>
      </trkpt>
      <trkpt lat="50.15928" lon="5.11645">
        <ele>201</ele>
        <time>2013-08-04T11:09:08Z</time>
      </trkpt>
      <trkpt lat="50.15958" lon="5.11613">
        <ele>201</ele>
        <time>2013-08-04T11:09:18Z</time>
      </trkpt>
      <trkpt lat="50.15989" lon="5.11581">
        <ele>201</ele>
        <time>2013-08-04T11:09:29Z</time>
      </trkpt>
      <trkpt lat="50.16021" lon="5.11543">
        <ele>201</ele>
        <time>2013-08-04T11:09:39Z</time>
      </trkpt>
      <trkpt lat="50.16045" lon="5.11516">
        <ele>201</ele>
        <time>2013-08-04T11:09:49Z</time>
      </trkpt>
      <trkpt lat="50.16064" lon="5.11494">
        <ele>201</ele>
        <time>2013-08-04T11:09:59Z</time>
      </trkpt>
      <trkpt lat="50.16087" lon="5.11469">
        <ele>201</ele>
        <time>2013-08-04T11:10:09Z</time>
      </trkpt>
      <trkpt lat="50.16087" lon="5.11465">
        <ele>201</ele>
        <time>2013-08-04T11:10:19Z</time>
      </trkpt>
      <trkpt lat="50.16096" lon="5.11451">
        <ele>201</ele>
        <time>2013-08-04T11:10:29Z</time>
      </trkpt>
      <trkpt lat="50.16114" lon="5.11427">
        <ele>200</ele>
        <time>2013-08-04T11:10:39Z</time>
      </trkpt>
      <trkpt lat="50.16132" lon="5.11403">
        <ele>201</ele>
        <time>2013-08-04T11:10:49Z</time>
      </trkpt>
      <trkpt lat="50.16152" lon="5.1137">
        <ele>200</ele>
        <time>2013-08-04T11:10:59Z</time>
      </trkpt>
      <trkpt lat="50.16178" lon="5.11318">
        <ele>200</ele>
        <time>2013-08-04T11:11:09Z</time>
      </trkpt>
      <trkpt lat="50.16216" lon="5.1133">
        <ele>199</ele>
        <time>2013-08-04T11:11:19Z</time>
      </trkpt>
      <trkpt lat="50.16235" lon="5.11333">
        <ele>199</ele>
        <time>2013-08-04T11:11:29Z</time>
      </trkpt>
      <trkpt lat="50.16258" lon="5.11303">
        <ele>199</ele>
        <time>2013-08-04T11:11:39Z</time>
      </trkpt>
      <trkpt lat="50.1628" lon="5.11271">
        <ele>198</ele>
        <time>2013-08-04T11:11:49Z</time>
      </trkpt>
      <trkpt lat="50.16301" lon="5.1124">
        <ele>198</ele>
        <time>2013-08-04T11:12:00Z</time>
      </trkpt>
      <trkpt lat="50.16323" lon="5.11211">
        <ele>199</ele>
        <time>2013-08-04T11:12:10Z</time>
      </trkpt>
      <trkpt lat="50.16348" lon="5.11176">
        <ele>198</ele>
        <time>2013-08-04T11:12:20Z</time>
      </trkpt>
      <trkpt lat="50.16375" lon="5.11139">
        <ele>198</ele>
        <time>2013-08-04T11:12:30Z</time>
      </trkpt>
      <trkpt lat="50.16401" lon="5.11115">
        <ele>199</ele>
        <time>2013-08-04T11:12:40Z</time>
      </trkpt>
      <trkpt lat="50.16423" lon="5.11079">
        <ele>199</ele>
        <time>2013-08-04T11:12:50Z</time>
      </trkpt>
      <trkpt lat="50.16449" lon="5.11041">
        <ele>199</ele>
        <time>2013-08-04T11:13:00Z</time>
      </trkpt>
      <trkpt lat="50.16485" lon="5.10995">
        <ele>198</ele>
        <time>2013-08-04T11:13:10Z</time>
      </trkpt>
      <trkpt lat="50.16515" lon="5.10951">
        <ele>198</ele>
        <time>2013-08-04T11:13:20Z</time>
      </trkpt>
      <trkpt lat="50.16528" lon="5.10913">
        <ele>200</ele>
        <time>2013-08-04T11:13:30Z</time>
      </trkpt>
      <trkpt lat="50.16529" lon="5.1089">
        <ele>200</ele>
        <time>2013-08-04T11:13:40Z</time>
      </trkpt>
      <trkpt lat="50.1653" lon="5.10866">
        <ele>200</ele>
        <time>2013-08-04T11:13:50Z</time>
      </trkpt>
      <trkpt lat="50.16545" lon="5.10785">
        <ele>199</ele>
        <time>2013-08-04T11:14:00Z</time>
      </trkpt>
      <trkpt lat="50.16555" lon="5.10707">
        <ele>198</ele>
        <time>2013-08-04T11:14:10Z</time>
      </trkpt>
      <trkpt lat="50.16562" lon="5.10648">
        <ele>198</ele>
        <time>2013-08-04T11:14:20Z</time>
      </trkpt>
      <trkpt lat="50.16571" lon="5.10597">
        <ele>198</ele>
        <time>2013-08-04T11:14:31Z</time>
      </trkpt>
      <trkpt lat="50.16578" lon="5.10514">
        <ele>198</ele>
        <time>2013-08-04T11:14:41Z</time>
      </trkpt>
      <trkpt lat="50.16578" lon="5.105">
        <ele>197</ele>
        <time>2013-08-04T11:14:51Z</time>
      </trkpt>
      <trkpt lat="50.16581" lon="5.10468">
        <ele>198</ele>
        <time>2013-08-04T11:15:01Z</time>
      </trkpt>
      <trkpt lat="50.16584" lon="5.10415">
        <ele>198</ele>
        <time>2013-08-04T11:15:11Z</time>
      </trkpt>
      <trkpt lat="50.16584" lon="5.10359">
        <ele>198</ele>
        <time>2013-08-04T11:15:21Z</time>
      </trkpt>
      <trkpt lat="50.16579" lon="5.10307">
        <ele>200</ele>
        <time>2013-08-04T11:15:31Z</time>
      </trkpt>
      <trkpt lat="50.16573" lon="5.10263">
        <ele>201</ele>
        <time>2013-08-04T11:15:41Z</time>
      </trkpt>
      <trkpt lat="50.1657" lon="5.10225">
        <ele>200</ele>
        <time>2013-08-04T11:15:51Z</time>
      </trkpt>
      <trkpt lat="50.1657" lon="5.10216">
        <ele>200</ele>
        <time>2013-08-04T11:16:01Z</time>
      </trkpt>
      <trkpt lat="50.16565" lon="5.10201">
        <ele>200</ele>
        <time>2013-08-04T11:16:11Z</time>
      </trkpt>
      <trkpt lat="50.16551" lon="5.10135">
        <ele>198</ele>
        <time>2013-08-04T11:16:21Z</time>
      </trkpt>
      <trkpt lat="50.16537" lon="5.10046">
        <ele>198</ele>
        <time>2013-08-04T11:16:31Z</time>
      </trkpt>
      <trkpt lat="50.16524" lon="5.09973">
        <ele>197</ele>
        <time>2013-08-04T11:16:41Z</time>
      </trkpt>
      <trkpt lat="50.16514" lon="5.09924">
        <ele>197</ele>
        <time>2013-08-04T11:16:51Z</time>
      </trkpt>
      <trkpt lat="50.16505" lon="5.09872">
        <ele>197</ele>
        <time>2013-08-04T11:17:01Z</time>
      </trkpt>
      <trkpt lat="50.16489" lon="5.09816">
        <ele>197</ele>
        <time>2013-08-04T11:17:12Z</time>
      </trkpt>
      <trkpt lat="50.16482" lon="5.0978">
        <ele>198</ele>
        <time>2013-08-04T11:17:22Z</time>
      </trkpt>
      <trkpt lat="50.16478" lon="5.09744">
        <ele>199</ele>
        <time>2013-08-04T11:17:32Z</time>
      </trkpt>
      <trkpt lat="50.16473" lon="5.09709">
        <ele>200</ele>
        <time>2013-08-04T11:17:42Z</time>
      </trkpt>
      <trkpt lat="50.16469" lon="5.09663">
        <ele>200</ele>
        <time>2013-08-04T11:17:52Z</time>
      </trkpt>
      <trkpt lat="50.16468" lon="5.09622">
        <ele>198</ele>
        <time>2013-08-04T11:18:02Z</time>
      </trkpt>
      <trkpt lat="50.16462" lon="5.09574">
        <ele>197</ele>
        <time>2013-08-04T11:18:12Z</time>
      </trkpt>
      <trkpt lat="50.16459" lon="5.0954">
        <ele>197</ele>
        <time>2013-08-04T11:18:22Z</time>
      </trkpt>
      <trkpt lat="50.16456" lon="5.09527">
        <ele>197</ele>
        <time>2013-08-04T11:18:32Z</time>
      </trkpt>
      <trkpt lat="50.16455" lon="5.0952">
        <ele>197</ele>
        <time>2013-08-04T11:18:42Z</time>
      </trkpt>
      <trkpt lat="50.16456" lon="5.09514">
        <ele>198</ele>
        <time>2013-08-04T11:18:52Z</time>
      </trkpt>
      <trkpt lat="50.16458" lon="5.09511">
        <ele>197</ele>
        <time>2013-08-04T11:19:02Z</time>
      </trkpt>
      <trkpt lat="50.1646" lon="5.09511">
        <ele>197</ele>
        <time>2013-08-04T11:19:12Z</time>
      </trkpt>
      <trkpt lat="50.1646" lon="5.09513">
        <ele>197</ele>
        <time>2013-08-04T11:19:22Z</time>
      </trkpt>
      <trkpt lat="50.16457" lon="5.09515">
        <ele>197</ele>
        <time>2013-08-04T11:19:32Z</time>
      </trkpt>
      <trkpt lat="50.16451" lon="5.0952">
        <ele>197</ele>
        <time>2013-08-04T11:19:42Z</time>
      </trkpt>
      <trkpt lat="50.16447" lon="5.09524">
        <ele>197</ele>
        <time>2013-08-04T11:19:52Z</time>
      </trkpt>
      <trkpt lat="50.16445" lon="5.09526">
        <ele>197</ele>
        <time>2013-08-04T11:20:03Z</time>
      </trkpt>
      <trkpt lat="50.16445" lon="5.09527">
        <ele>197</ele>
        <time>2013-08-04T11:20:13Z</time>
      </trkpt>
      <trkpt lat="50.16446" lon="5.09526">
        <ele>197</ele>
        <time>2013-08-04T11:20:23Z</time>
      </trkpt>
      <trkpt lat="50.16447" lon="5.09521">
        <ele>197</ele>
        <time>2013-08-04T11:20:33Z</time>
      </trkpt>
      <trkpt lat="50.16449" lon="5.09517">
        <ele>197</ele>
        <time>2013-08-04T11:20:43Z</time>
      </trkpt>
      <trkpt lat="50.1645" lon="5.09514">
        <ele>197</ele>
        <time>2013-08-04T11:20:53Z</time>
      </trkpt>
      <trkpt lat="50.16451" lon="5.09513">
        <ele>197</ele>
        <time>2013-08-04T11:21:03Z</time>
      </trkpt>
      <trkpt lat="50.16451" lon="5.09512">
        <ele>198</ele>
        <time>2013-08-04T11:21:13Z</time>
      </trkpt>
      <trkpt lat="50.16452" lon="5.09512">
        <ele>198</ele>
        <time>2013-08-04T11:21:23Z</time>
      </trkpt>
      <trkpt lat="50.16452" lon="5.09512">
        <ele>197</ele>
        <time>2013-08-04T11:21:33Z</time>
      </trkpt>
      <trkpt lat="50.16452" lon="5.09513">
        <ele>197</ele>
        <time>2013-08-04T11:21:43Z</time>
      </trkpt>
      <trkpt lat="50.16453" lon="5.09513">
        <ele>197</ele>
        <time>2013-08-04T11:21:54Z</time>
      </trkpt>
      <trkpt lat="50.16454" lon="5.09514">
        <ele>198</ele>
        <time>2013-08-04T11:22:04Z</time>
      </trkpt>
      <trkpt lat="50.16457" lon="5.09517">
        <ele>198</ele>
        <time>2013-08-04T11:22:14Z</time>
      </trkpt>
      <trkpt lat="50.1646" lon="5.09511">
        <ele>198</ele>
        <time>2013-08-04T11:22:24Z</time>
      </trkpt>
      <trkpt lat="50.16458" lon="5.09509">
        <ele>197</ele>
        <time>2013-08-04T11:22:34Z</time>
      </trkpt>
      <trkpt lat="50.16459" lon="5.09507">
        <ele>197</ele>
        <time>2013-08-04T11:22:44Z</time>
      </trkpt>
      <trkpt lat="50.1646" lon="5.09506">
        <ele>198</ele>
        <time>2013-08-04T11:22:54Z</time>
      </trkpt>
      <trkpt lat="50.16216" lon="5.08188">
        <ele>201</ele>
        <time>2013-08-04T11:23:04Z</time>
      </trkpt>
      <trkpt lat="50.16195" lon="5.08141">
        <ele>201</ele>
        <time>2013-08-04T11:23:14Z</time>
      </trkpt>
      <trkpt lat="50.16177" lon="5.081">
        <ele>200</ele>
        <time>2013-08-04T11:23:24Z</time>
      </trkpt>
      <trkpt lat="50.16154" lon="5.08065">
        <ele>200</ele>
        <time>2013-08-04T11:23:35Z</time>
      </trkpt>
      <trkpt lat="50.16122" lon="5.08019">
        <ele>200</ele>
        <time>2013-08-04T11:23:45Z</time>
      </trkpt>
      <trkpt lat="50.161" lon="5.07993">
        <ele>200</ele>
        <time>2013-08-04T11:23:55Z</time>
      </trkpt>
      <trkpt lat="50.16072" lon="5.0796">
        <ele>200</ele>
        <time>2013-08-04T11:24:05Z</time>
      </trkpt>
      <trkpt lat="50.16049" lon="5.07925">
        <ele>199</ele>
        <time>2013-08-04T11:24:15Z</time>
      </trkpt>
      <trkpt lat="50.16022" lon="5.07895">
        <ele>200</ele>
        <time>2013-08-04T11:24:25Z</time>
      </trkpt>
      <trkpt lat="50.15989" lon="5.07872">
        <ele>200</ele>
        <time>2013-08-04T11:24:35Z</time>
      </trkpt>
      <trkpt lat="50.15966" lon="5.07841">
        <ele>200</ele>
        <time>2013-08-04T11:24:45Z</time>
      </trkpt>
      <trkpt lat="50.15955" lon="5.07797">
        <ele>201</ele>
        <time>2013-08-04T11:24:55Z</time>
      </trkpt>
      <trkpt lat="50.15934" lon="5.07755">
        <ele>201</ele>
        <time>2013-08-04T11:25:05Z</time>
      </trkpt>
      <trkpt lat="50.15916" lon="5.07714">
        <ele>200</ele>
        <time>2013-08-04T11:25:15Z</time>
      </trkpt>
      <trkpt lat="50.15901" lon="5.07663">
        <ele>201</ele>
        <time>2013-08-04T11:25:25Z</time>
      </trkpt>
      <trkpt lat="50.15887" lon="5.07616">
        <ele>201</ele>
        <time>2013-08-04T11:25:35Z</time>
      </trkpt>
      <trkpt lat="50.15875" lon="5.07569">
        <ele>201</ele>
        <time>2013-08-04T11:25:45Z</time>
      </trkpt>
      <trkpt lat="50.15864" lon="5.07508">
        <ele>201</ele>
        <time>2013-08-04T11:25:55Z</time>
      </trkpt>
      <trkpt lat="50.15858" lon="5.07452">
        <ele>200</ele>
        <time>2013-08-04T11:26:05Z</time>
      </trkpt>
      <trkpt lat="50.15855" lon="5.07388">
        <ele>200</ele>
        <time>2013-08-04T11:26:16Z</time>
      </trkpt>
      <trkpt lat="50.15852" lon="5.07322">
        <ele>200</ele>
        <time>2013-08-04T11:26:26Z</time>
      </trkpt>
      <trkpt lat="50.15829" lon="5.073">
        <ele>199</ele>
        <time>2013-08-04T11:26:36Z</time>
      </trkpt>
      <trkpt lat="50.15822" lon="5.07236">
        <ele>196</ele>
        <time>2013-08-04T11:26:48Z</time>
      </trkpt>
      <trkpt lat="50.15873" lon="5.07146">
        <ele>197</ele>
        <time>2013-08-04T11:26:58Z</time>
      </trkpt>
      <trkpt lat="50.15888" lon="5.0708">
        <ele>197</ele>
        <time>2013-08-04T11:27:08Z</time>
      </trkpt>
      <trkpt lat="50.15902" lon="5.07027">
        <ele>197</ele>
        <time>2013-08-04T11:27:18Z</time>
      </trkpt>
      <trkpt lat="50.1592" lon="5.06987">
        <ele>197</ele>
        <time>2013-08-04T11:27:28Z</time>
      </trkpt>
      <trkpt lat="50.15934" lon="5.06951">
        <ele>197</ele>
        <time>2013-08-04T11:27:38Z</time>
      </trkpt>
      <trkpt lat="50.15936" lon="5.06948">
        <ele>198</ele>
        <time>2013-08-04T11:27:48Z</time>
      </trkpt>
      <trkpt lat="50.15936" lon="5.06946">
        <ele>198</ele>
        <time>2013-08-04T11:27:58Z</time>
      </trkpt>
      <trkpt lat="50.15948" lon="5.06919">
        <ele>198</ele>
        <time>2013-08-04T11:28:08Z</time>
      </trkpt>
      <trkpt lat="50.15971" lon="5.06878">
        <ele>198</ele>
        <time>2013-08-04T11:28:19Z</time>
      </trkpt>
      <trkpt lat="50.15995" lon="5.06824">
        <ele>197</ele>
        <time>2013-08-04T11:28:29Z</time>
      </trkpt>
      <trkpt lat="50.16021" lon="5.06775">
        <ele>198</ele>
        <time>2013-08-04T11:28:39Z</time>
      </trkpt>
      <trkpt lat="50.1604" lon="5.06728">
        <ele>198</ele>
        <time>2013-08-04T11:28:49Z</time>
      </trkpt>
      <trkpt lat="50.16064" lon="5.06678">
        <ele>197</ele>
        <time>2013-08-04T11:28:59Z</time>
      </trkpt>
      <trkpt lat="50.16084" lon="5.06632">
        <ele>197</ele>
        <time>2013-08-04T11:29:09Z</time>
      </trkpt>
      <trkpt lat="50.16102" lon="5.0658">
        <ele>197</ele>
        <time>2013-08-04T11:29:19Z</time>
      </trkpt>
      <trkpt lat="50.16117" lon="5.06531">
        <ele>196</ele>
        <time>2013-08-04T11:29:29Z</time>
      </trkpt>
      <trkpt lat="50.16132" lon="5.06473">
        <ele>197</ele>
        <time>2013-08-04T11:29:39Z</time>
      </trkpt>
      <trkpt lat="50.16148" lon="5.06415">
        <ele>196</ele>
        <time>2013-08-04T11:29:49Z</time>
      </trkpt>
      <trkpt lat="50.16164" lon="5.06357">
        <ele>197</ele>
        <time>2013-08-04T11:30:00Z</time>
      </trkpt>
      <trkpt lat="50.16182" lon="5.06305">
        <ele>196</ele>
        <time>2013-08-04T11:30:10Z</time>
      </trkpt>
      <trkpt lat="50.16195" lon="5.06254">
        <ele>197</ele>
        <time>2013-08-04T11:30:20Z</time>
      </trkpt>
      <trkpt lat="50.16209" lon="5.06206">
        <ele>197</ele>
        <time>2013-08-04T11:30:30Z</time>
      </trkpt>
      <trkpt lat="50.16223" lon="5.06159">
        <ele>196</ele>
        <time>2013-08-04T11:30:40Z</time>
      </trkpt>
      <trkpt lat="50.16238" lon="5.06106">
        <ele>197</ele>
        <time>2013-08-04T11:30:50Z</time>
      </trkpt>
      <trkpt lat="50.16247" lon="5.06064">
        <ele>197</ele>
        <time>2013-08-04T11:31:00Z</time>
      </trkpt>
      <trkpt lat="50.16259" lon="5.06009">
        <ele>197</ele>
        <time>2013-08-04T11:31:10Z</time>
      </trkpt>
      <trkpt lat="50.16274" lon="5.05953">
        <ele>198</ele>
        <time>2013-08-04T11:31:20Z</time>
      </trkpt>
      <trkpt lat="50.16279" lon="5.05935">
        <ele>197</ele>
        <time>2013-08-04T11:31:30Z</time>
      </trkpt>
      <trkpt lat="50.16276" lon="5.05943">
        <ele>197</ele>
        <time>2013-08-04T11:31:40Z</time>
      </trkpt>
      <trkpt lat="50.16276" lon="5.05943">
        <ele>197</ele>
        <time>2013-08-04T11:31:50Z</time>
      </trkpt>
      <trkpt lat="50.16275" lon="5.05948">
        <ele>197</ele>
        <time>2013-08-04T11:32:00Z</time>
      </trkpt>
      <trkpt lat="50.16274" lon="5.0595">
        <ele>197</ele>
        <time>2013-08-04T11:32:10Z</time>
      </trkpt>
      <trkpt lat="50.16278" lon="5.05943">
        <ele>197</ele>
        <time>2013-08-04T11:32:20Z</time>
      </trkpt>
      <trkpt lat="50.16287" lon="5.05918">
        <ele>197</ele>
        <time>2013-08-04T11:32:31Z</time>
      </trkpt>
      <trkpt lat="50.163" lon="5.05877">
        <ele>197</ele>
        <time>2013-08-04T11:32:41Z</time>
      </trkpt>
      <trkpt lat="50.16316" lon="5.05833">
        <ele>198</ele>
        <time>2013-08-04T11:32:51Z</time>
      </trkpt>
      <trkpt lat="50.16339" lon="5.0578">
        <ele>199</ele>
        <time>2013-08-04T11:33:01Z</time>
      </trkpt>
      <trkpt lat="50.16362" lon="5.05736">
        <ele>198</ele>
        <time>2013-08-04T11:33:11Z</time>
      </trkpt>
      <trkpt lat="50.16383" lon="5.05692">
        <ele>198</ele>
        <time>2013-08-04T11:33:21Z</time>
      </trkpt>
      <trkpt lat="50.16404" lon="5.05654">
        <ele>198</ele>
        <time>2013-08-04T11:33:31Z</time>
      </trkpt>
      <trkpt lat="50.16431" lon="5.05614">
        <ele>199</ele>
        <time>2013-08-04T11:33:41Z</time>
      </trkpt>
      <trkpt lat="50.16462" lon="5.05576">
        <ele>199</ele>
        <time>2013-08-04T11:33:51Z</time>
      </trkpt>
      <trkpt lat="50.16491" lon="5.05544">
        <ele>198</ele>
        <time>2013-08-04T11:34:01Z</time>
      </trkpt>
      <trkpt lat="50.1652" lon="5.05515">
        <ele>199</ele>
        <time>2013-08-04T11:34:11Z</time>
      </trkpt>
      <trkpt lat="50.16549" lon="5.05479">
        <ele>198</ele>
        <time>2013-08-04T11:34:22Z</time>
      </trkpt>
      <trkpt lat="50.16584" lon="5.05447">
        <ele>199</ele>
        <time>2013-08-04T11:34:32Z</time>
      </trkpt>
      <trkpt lat="50.16605" lon="5.05424">
        <ele>198</ele>
        <time>2013-08-04T11:34:42Z</time>
      </trkpt>
      <trkpt lat="50.16631" lon="5.05401">
        <ele>199</ele>
        <time>2013-08-04T11:34:52Z</time>
      </trkpt>
      <trkpt lat="50.16646" lon="5.05387">
        <ele>199</ele>
        <time>2013-08-04T11:35:02Z</time>
      </trkpt>
      <trkpt lat="50.16671" lon="5.05356">
        <ele>199</ele>
        <time>2013-08-04T11:35:12Z</time>
      </trkpt>
      <trkpt lat="50.16702" lon="5.05323">
        <ele>199</ele>
        <time>2013-08-04T11:35:22Z</time>
      </trkpt>
      <trkpt lat="50.16728" lon="5.05298">
        <ele>199</ele>
        <time>2013-08-04T11:35:32Z</time>
      </trkpt>
      <trkpt lat="50.16756" lon="5.05266">
        <ele>199</ele>
        <time>2013-08-04T11:35:42Z</time>
      </trkpt>
      <trkpt lat="50.16785" lon="5.05236">
        <ele>199</ele>
        <time>2013-08-04T11:35:52Z</time>
      </trkpt>
      <trkpt lat="50.16811" lon="5.05209">
        <ele>199</ele>
        <time>2013-08-04T11:36:02Z</time>
      </trkpt>
      <trkpt lat="50.16836" lon="5.05182">
        <ele>199</ele>
        <time>2013-08-04T11:36:12Z</time>
      </trkpt>
      <trkpt lat="50.16862" lon="5.05155">
        <ele>199</ele>
        <time>2013-08-04T11:36:22Z</time>
      </trkpt>
      <trkpt lat="50.16887" lon="5.0513">
        <ele>199</ele>
        <time>2013-08-04T11:36:32Z</time>
      </trkpt>
      <trkpt lat="50.16915" lon="5.05098">
        <ele>199</ele>
        <time>2013-08-04T11:36:43Z</time>
      </trkpt>
      <trkpt lat="50.16943" lon="5.05071">
        <ele>200</ele>
        <time>2013-08-04T11:36:53Z</time>
      </trkpt>
      <trkpt lat="50.16966" lon="5.05042">
        <ele>200</ele>
        <time>2013-08-04T11:37:03Z</time>
      </trkpt>
      <trkpt lat="50.16989" lon="5.05005">
        <ele>201</ele>
        <time>2013-08-04T11:37:13Z</time>
      </trkpt>
      <trkpt lat="50.17006" lon="5.04967">
        <ele>201</ele>
        <time>2013-08-04T11:37:23Z</time>
      </trkpt>
      <trkpt lat="50.17019" lon="5.04914">
        <ele>202</ele>
        <time>2013-08-04T11:37:33Z</time>
      </trkpt>
      <trkpt lat="50.17032" lon="5.04854">
        <ele>202</ele>
        <time>2013-08-04T11:37:43Z</time>
      </trkpt>
      <trkpt lat="50.17047" lon="5.04786">
        <ele>202</ele>
        <time>2013-08-04T11:37:53Z</time>
      </trkpt>
      <trkpt lat="50.17059" lon="5.04728">
        <ele>201</ele>
        <time>2013-08-04T11:38:03Z</time>
      </trkpt>
      <trkpt lat="50.1708" lon="5.04705">
        <ele>200</ele>
        <time>2013-08-04T11:38:13Z</time>
      </trkpt>
      <trkpt lat="50.17103" lon="5.04667">
        <ele>200</ele>
        <time>2013-08-04T11:38:23Z</time>
      </trkpt>
      <trkpt lat="50.17117" lon="5.04621">
        <ele>200</ele>
        <time>2013-08-04T11:38:33Z</time>
      </trkpt>
      <trkpt lat="50.17127" lon="5.04584">
        <ele>200</ele>
        <time>2013-08-04T11:38:43Z</time>
      </trkpt>
      <trkpt lat="50.17136" lon="5.04537">
        <ele>200</ele>
        <time>2013-08-04T11:38:53Z</time>
      </trkpt>
      <trkpt lat="50.17153" lon="5.04484">
        <ele>200</ele>
        <time>2013-08-04T11:39:03Z</time>
      </trkpt>
      <trkpt lat="50.17168" lon="5.04429">
        <ele>200</ele>
        <time>2013-08-04T11:39:13Z</time>
      </trkpt>
      <trkpt lat="50.17187" lon="5.04384">
        <ele>200</ele>
        <time>2013-08-04T11:39:23Z</time>
      </trkpt>
      <trkpt lat="50.17201" lon="5.04339">
        <ele>200</ele>
        <time>2013-08-04T11:39:33Z</time>
      </trkpt>
      <trkpt lat="50.1722" lon="5.04286">
        <ele>199</ele>
        <time>2013-08-04T11:39:43Z</time>
      </trkpt>
      <trkpt lat="50.17243" lon="5.04237">
        <ele>200</ele>
        <time>2013-08-04T11:39:54Z</time>
      </trkpt>
      <trkpt lat="50.17266" lon="5.04185">
        <ele>200</ele>
        <time>2013-08-04T11:40:04Z</time>
      </trkpt>
      <trkpt lat="50.17518" lon="5.03635">
        <ele>196</ele>
        <time>2013-08-04T11:43:27Z</time>
      </trkpt>
      <trkpt lat="50.17518" lon="5.03634">
        <ele>196</ele>
        <time>2013-08-04T11:43:37Z</time>
      </trkpt>
      <trkpt lat="50.17513" lon="5.03636">
        <ele>196</ele>
        <time>2013-08-04T11:43:47Z</time>
      </trkpt>
      <trkpt lat="50.17511" lon="5.03635">
        <ele>197</ele>
        <time>2013-08-04T11:43:57Z</time>
      </trkpt>
      <trkpt lat="50.17512" lon="5.03634">
        <ele>197</ele>
        <time>2013-08-04T11:44:07Z</time>
      </trkpt>
      <trkpt lat="50.17518" lon="5.03626">
        <ele>197</ele>
        <time>2013-08-04T11:44:17Z</time>
      </trkpt>
      <trkpt lat="50.17517" lon="5.03628">
        <ele>197</ele>
        <time>2013-08-04T11:44:27Z</time>
      </trkpt>
      <trkpt lat="50.17511" lon="5.03647">
        <ele>197</ele>
        <time>2013-08-04T11:44:37Z</time>
      </trkpt>
      <trkpt lat="50.17516" lon="5.03636">
        <ele>196</ele>
        <time>2013-08-04T11:44:56Z</time>
      </trkpt>
      <trkpt lat="50.17529" lon="5.03624">
        <ele>197</ele>
        <time>2013-08-04T11:45:06Z</time>
      </trkpt>
      <trkpt lat="50.1753" lon="5.03615">
        <ele>197</ele>
        <time>2013-08-04T11:45:16Z</time>
      </trkpt>
      <trkpt lat="50.17529" lon="5.03615">
        <ele>197</ele>
        <time>2013-08-04T11:45:26Z</time>
      </trkpt>
      <trkpt lat="50.17535" lon="5.03602">
        <ele>197</ele>
        <time>2013-08-04T11:45:36Z</time>
      </trkpt>
      <trkpt lat="50.1755" lon="5.0357">
        <ele>196</ele>
        <time>2013-08-04T11:45:46Z</time>
      </trkpt>
      <trkpt lat="50.17571" lon="5.03526">
        <ele>195</ele>
        <time>2013-08-04T11:45:56Z</time>
      </trkpt>
      <trkpt lat="50.17591" lon="5.03481">
        <ele>196</ele>
        <time>2013-08-04T11:46:06Z</time>
      </trkpt>
      <trkpt lat="50.17617" lon="5.03428">
        <ele>195</ele>
        <time>2013-08-04T11:46:16Z</time>
      </trkpt>
      <trkpt lat="50.17643" lon="5.0337">
        <ele>195</ele>
        <time>2013-08-04T11:46:26Z</time>
      </trkpt>
      <trkpt lat="50.17667" lon="5.03319">
        <ele>194</ele>
        <time>2013-08-04T11:46:36Z</time>
      </trkpt>
      <trkpt lat="50.17688" lon="5.03277">
        <ele>193</ele>
        <time>2013-08-04T11:46:47Z</time>
      </trkpt>
      <trkpt lat="50.17709" lon="5.03231">
        <ele>193</ele>
        <time>2013-08-04T11:46:57Z</time>
      </trkpt>
      <trkpt lat="50.17735" lon="5.03177">
        <ele>193</ele>
        <time>2013-08-04T11:47:07Z</time>
      </trkpt>
      <trkpt lat="50.17756" lon="5.03133">
        <ele>193</ele>
        <time>2013-08-04T11:47:17Z</time>
      </trkpt>
      <trkpt lat="50.17777" lon="5.03088">
        <ele>194</ele>
        <time>2013-08-04T11:47:27Z</time>
      </trkpt>
      <trkpt lat="50.17796" lon="5.03045">
        <ele>193</ele>
        <time>2013-08-04T11:47:37Z</time>
      </trkpt>
      <trkpt lat="50.17818" lon="5.02999">
        <ele>194</ele>
        <time>2013-08-04T11:47:47Z</time>
      </trkpt>
      <trkpt lat="50.17841" lon="5.02951">
        <ele>193</ele>
        <time>2013-08-04T11:47:57Z</time>
      </trkpt>
      <trkpt lat="50.17862" lon="5.02907">
        <ele>193</ele>
        <time>2013-08-04T11:48:07Z</time>
      </trkpt>
      <trkpt lat="50.17875" lon="5.02875">
        <ele>194</ele>
        <time>2013-08-04T11:48:17Z</time>
      </trkpt>
      <trkpt lat="50.17891" lon="5.02841">
        <ele>193</ele>
        <time>2013-08-04T11:48:27Z</time>
      </trkpt>
      <trkpt lat="50.1791" lon="5.02808">
        <ele>193</ele>
        <time>2013-08-04T11:48:37Z</time>
      </trkpt>
      <trkpt lat="50.1793" lon="5.02771">
        <ele>193</ele>
        <time>2013-08-04T11:48:47Z</time>
      </trkpt>
      <trkpt lat="50.1795" lon="5.02727">
        <ele>194</ele>
        <time>2013-08-04T11:48:57Z</time>
      </trkpt>
      <trkpt lat="50.1797" lon="5.02683">
        <ele>193</ele>
        <time>2013-08-04T11:49:07Z</time>
      </trkpt>
      <trkpt lat="50.17989" lon="5.02643">
        <ele>193</ele>
        <time>2013-08-04T11:49:17Z</time>
      </trkpt>
      <trkpt lat="50.18008" lon="5.02601">
        <ele>193</ele>
        <time>2013-08-04T11:49:27Z</time>
      </trkpt>
      <trkpt lat="50.18026" lon="5.02559">
        <ele>193</ele>
        <time>2013-08-04T11:49:38Z</time>
      </trkpt>
      <trkpt lat="50.18048" lon="5.02514">
        <ele>193</ele>
        <time>2013-08-04T11:49:48Z</time>
      </trkpt>
      <trkpt lat="50.18073" lon="5.02463">
        <ele>193</ele>
        <time>2013-08-04T11:49:58Z</time>
      </trkpt>
      <trkpt lat="50.18093" lon="5.02417">
        <ele>192</ele>
        <time>2013-08-04T11:50:08Z</time>
      </trkpt>
      <trkpt lat="50.18111" lon="5.02376">
        <ele>192</ele>
        <time>2013-08-04T11:50:18Z</time>
      </trkpt>
      <trkpt lat="50.18135" lon="5.02323">
        <ele>191</ele>
        <time>2013-08-04T11:50:28Z</time>
      </trkpt>
      <trkpt lat="50.18154" lon="5.0228">
        <ele>191</ele>
        <time>2013-08-04T11:50:38Z</time>
      </trkpt>
      <trkpt lat="50.18171" lon="5.02241">
        <ele>191</ele>
        <time>2013-08-04T11:50:48Z</time>
      </trkpt>
      <trkpt lat="50.18193" lon="5.02192">
        <ele>191</ele>
        <time>2013-08-04T11:50:58Z</time>
      </trkpt>
      <trkpt lat="50.18214" lon="5.02146">
        <ele>190</ele>
        <time>2013-08-04T11:51:08Z</time>
      </trkpt>
      <trkpt lat="50.18234" lon="5.02099">
        <ele>190</ele>
        <time>2013-08-04T11:51:18Z</time>
      </trkpt>
      <trkpt lat="50.18257" lon="5.02051">
        <ele>189</ele>
        <time>2013-08-04T11:51:29Z</time>
      </trkpt>
      <trkpt lat="50.18278" lon="5.02009">
        <ele>189</ele>
        <time>2013-08-04T11:51:39Z</time>
      </trkpt>
      <trkpt lat="50.18298" lon="5.01967">
        <ele>188</ele>
        <time>2013-08-04T11:51:49Z</time>
      </trkpt>
      <trkpt lat="50.18319" lon="5.01921">
        <ele>188</ele>
        <time>2013-08-04T11:51:59Z</time>
      </trkpt>
      <trkpt lat="50.18338" lon="5.01879">
        <ele>187</ele>
        <time>2013-08-04T11:52:09Z</time>
      </trkpt>
      <trkpt lat="50.18362" lon="5.01827">
        <ele>187</ele>
        <time>2013-08-04T11:52:19Z</time>
      </trkpt>
      <trkpt lat="50.18386" lon="5.01775">
        <ele>187</ele>
        <time>2013-08-04T11:52:29Z</time>
      </trkpt>
      <trkpt lat="50.18408" lon="5.01725">
        <ele>187</ele>
        <time>2013-08-04T11:52:39Z</time>
      </trkpt>
      <trkpt lat="50.1843" lon="5.01684">
        <ele>187</ele>
        <time>2013-08-04T11:52:49Z</time>
      </trkpt>
      <trkpt lat="50.18445" lon="5.01648">
        <ele>187</ele>
        <time>2013-08-04T11:52:59Z</time>
      </trkpt>
      <trkpt lat="50.18462" lon="5.01612">
        <ele>186</ele>
        <time>2013-08-04T11:53:09Z</time>
      </trkpt>
      <trkpt lat="50.18479" lon="5.01573">
        <ele>186</ele>
        <time>2013-08-04T11:53:19Z</time>
      </trkpt>
      <trkpt lat="50.18499" lon="5.01532">
        <ele>186</ele>
        <time>2013-08-04T11:53:30Z</time>
      </trkpt>
      <trkpt lat="50.18523" lon="5.01481">
        <ele>186</ele>
        <time>2013-08-04T11:53:40Z</time>
      </trkpt>
      <trkpt lat="50.18539" lon="5.01442">
        <ele>186</ele>
        <time>2013-08-04T11:53:50Z</time>
      </trkpt>
      <trkpt lat="50.18552" lon="5.01412">
        <ele>185</ele>
        <time>2013-08-04T11:54:00Z</time>
      </trkpt>
      <trkpt lat="50.18569" lon="5.0137">
        <ele>186</ele>
        <time>2013-08-04T11:54:10Z</time>
      </trkpt>
      <trkpt lat="50.18585" lon="5.01331">
        <ele>186</ele>
        <time>2013-08-04T11:54:20Z</time>
      </trkpt>
      <trkpt lat="50.18604" lon="5.01276">
        <ele>186</ele>
        <time>2013-08-04T11:54:30Z</time>
      </trkpt>
      <trkpt lat="50.18619" lon="5.01226">
        <ele>186</ele>
        <time>2013-08-04T11:54:40Z</time>
      </trkpt>
      <trkpt lat="50.18628" lon="5.01182">
        <ele>186</ele>
        <time>2013-08-04T11:54:50Z</time>
      </trkpt>
      <trkpt lat="50.1864" lon="5.01134">
        <ele>186</ele>
        <time>2013-08-04T11:55:01Z</time>
      </trkpt>
      <trkpt lat="50.18652" lon="5.01078">
        <ele>185</ele>
        <time>2013-08-04T11:55:11Z</time>
      </trkpt>
      <trkpt lat="50.18663" lon="5.01029">
        <ele>185</ele>
        <time>2013-08-04T11:55:21Z</time>
      </trkpt>
      <trkpt lat="50.18672" lon="5.00982">
        <ele>185</ele>
        <time>2013-08-04T11:55:31Z</time>
      </trkpt>
      <trkpt lat="50.18683" lon="5.00936">
        <ele>185</ele>
        <time>2013-08-04T11:55:41Z</time>
      </trkpt>
      <trkpt lat="50.18699" lon="5.00891">
        <ele>185</ele>
        <time>2013-08-04T11:55:51Z</time>
      </trkpt>
      <trkpt lat="50.18718" lon="5.00848">
        <ele>185</ele>
        <time>2013-08-04T11:56:01Z</time>
      </trkpt>
      <trkpt lat="50.18745" lon="5.00801">
        <ele>184</ele>
        <time>2013-08-04T11:56:11Z</time>
      </trkpt>
      <trkpt lat="50.18773" lon="5.00762">
        <ele>185</ele>
        <time>2013-08-04T11:56:21Z</time>
      </trkpt>
      <trkpt lat="50.18795" lon="5.00734">
        <ele>185</ele>
        <time>2013-08-04T11:56:31Z</time>
      </trkpt>
      <trkpt lat="50.18827" lon="5.00713">
        <ele>185</ele>
        <time>2013-08-04T11:56:41Z</time>
      </trkpt>
      <trkpt lat="50.1885" lon="5.007">
        <ele>184</ele>
        <time>2013-08-04T11:56:51Z</time>
      </trkpt>
      <trkpt lat="50.1888" lon="5.00692">
        <ele>184</ele>
        <time>2013-08-04T11:57:01Z</time>
      </trkpt>
      <trkpt lat="50.18907" lon="5.00705">
        <ele>183</ele>
        <time>2013-08-04T11:57:11Z</time>
      </trkpt>
      <trkpt lat="50.1893" lon="5.0069">
        <ele>183</ele>
        <time>2013-08-04T11:57:21Z</time>
      </trkpt>
      <trkpt lat="50.18948" lon="5.00679">
        <ele>184</ele>
        <time>2013-08-04T11:57:31Z</time>
      </trkpt>
      <trkpt lat="50.18967" lon="5.00667">
        <ele>184</ele>
        <time>2013-08-04T11:57:41Z</time>
      </trkpt>
      <trkpt lat="50.18991" lon="5.00657">
        <ele>184</ele>
        <time>2013-08-04T11:57:51Z</time>
      </trkpt>
      <trkpt lat="50.19012" lon="5.00648">
        <ele>184</ele>
        <time>2013-08-04T11:58:01Z</time>
      </trkpt>
      <trkpt lat="50.19029" lon="5.00635">
        <ele>184</ele>
        <time>2013-08-04T11:58:12Z</time>
      </trkpt>
      <trkpt lat="50.1903" lon="5.00634">
        <ele>184</ele>
        <time>2013-08-04T11:58:22Z</time>
      </trkpt>
      <trkpt lat="50.1903" lon="5.00634">
        <ele>184</ele>
        <time>2013-08-04T11:58:32Z</time>
      </trkpt>
      <trkpt lat="50.1903" lon="5.00634">
        <ele>184</ele>
        <time>2013-08-04T11:58:42Z</time>
      </trkpt>
      <trkpt lat="50.19031" lon="5.00634">
        <ele>184</ele>
        <time>2013-08-04T11:58:52Z</time>
      </trkpt>
      <trkpt lat="50.19032" lon="5.00633">
        <ele>184</ele>
        <time>2013-08-04T11:59:02Z</time>
      </trkpt>
      <trkpt lat="50.19033" lon="5.00632">
        <ele>184</ele>
        <time>2013-08-04T11:59:12Z</time>
      </trkpt>
      <trkpt lat="50.19033" lon="5.00632">
        <ele>184</ele>
        <time>2013-08-04T11:59:22Z</time>
      </trkpt>
      <trkpt lat="50.19033" lon="5.00631">
        <ele>183</ele>
        <time>2013-08-04T11:59:32Z</time>
      </trkpt>
      <trkpt lat="50.19033" lon="5.00631">
        <ele>183</ele>
        <time>2013-08-04T11:59:42Z</time>
      </trkpt>
    </trkseg>
  </trk>
</gpx>